sensor_id;sensor_type;location;lat;lon;timestamp;temperature;humidity
9668;DHT22;4872;48.316;10.650;2022-12-01T04:12:19;3.30;99.90
9668;DHT22;4872;48.316;10.650;2022-12-01T04:51:11;3.40;99.90
9668;DHT22;4872;48.316;10.650;2022-12-01T04:53:38;3.30;99.90
9668;DHT22;4872;48.316;10.650;2022-12-01T04:56:06;3.40;99.90
9668;DHT22;4872;48.316;10.650;2022-12-01T04:58:33;3.30;99.90
9668;DHT22;4872;48.316;10.650;2022-12-01T05:01:03;3.40;99.90
9668;DHT22;4872;48.316;10.650;2022-12-01T05:03:30;3.40;99.90
9668;DHT22;4872;48.316;10.650;2022-12-01T05:06:00;3.40;99.90
9668;DHT22;4872;48.316;10.650;2022-12-01T05:08:29;3.40;99.90
9668;DHT22;4872;48.316;10.650;2022-12-01T05:10:55;3.40;99.90
9668;DHT22;4872;48.316;10.650;2022-12-01T05:13:23;3.40;99.90
9668;DHT22;4872;48.316;10.650;2022-12-01T05:15:49;3.40;99.90
9668;DHT22;4872;48.316;10.650;2022-12-01T05:18:16;3.40;99.90
9668;DHT22;4872;48.316;10.650;2022-12-01T05:20:43;3.40;99.90
9668;DHT22;4872;48.316;10.650;2022-12-01T05:23:24;3.40;99.90
9668;DHT22;4872;48.316;10.650;2022-12-01T05:25:53;3.40;99.90
9668;DHT22;4872;48.316;10.650;2022-12-01T05:28:21;3.40;99.90
9668;DHT22;4872;48.316;10.650;2022-12-01T05:30:48;3.50;99.90
9668;DHT22;4872;48.316;10.650;2022-12-01T05:33:15;3.40;99.90
9668;DHT22;4872;48.316;10.650;2022-12-01T05:35:42;3.40;99.90
9668;DHT22;4872;48.316;10.650;2022-12-01T05:38:09;3.40;99.90
9668;DHT22;4872;48.316;10.650;2022-12-01T05:40:36;3.40;99.90
9668;DHT22;4872;48.316;10.650;2022-12-01T05:43:05;3.40;99.90
9668;DHT22;4872;48.316;10.650;2022-12-01T05:45:33;3.50;99.90
9668;DHT22;4872;48.316;10.650;2022-12-01T05:48:00;3.40;99.90
9668;DHT22;4872;48.316;10.650;2022-12-01T05:50:29;3.50;99.90
9668;DHT22;4872;48.316;10.650;2022-12-01T05:52:56;3.50;99.90
9668;DHT22;4872;48.316;10.650;2022-12-01T05:55:23;3.50;99.90
9668;DHT22;4872;48.316;10.650;2022-12-01T05:57:49;3.70;99.90
9668;DHT22;4872;48.316;10.650;2022-12-01T06:00:19;3.80;99.90
9668;DHT22;4872;48.316;10.650;2022-12-01T06:02:46;3.90;99.90
9668;DHT22;4872;48.316;10.650;2022-12-01T06:05:12;4.10;99.90
9668;DHT22;4872;48.316;10.650;2022-12-01T06:07:39;4.10;99.90
9668;DHT22;4872;48.316;10.650;2022-12-01T06:10:07;4.20;99.90
9668;DHT22;4872;48.316;10.650;2022-12-01T06:12:34;4.20;99.90
9668;DHT22;4872;48.316;10.650;2022-12-01T06:15:02;4.20;99.90
9668;DHT22;4872;48.316;10.650;2022-12-01T06:17:30;4.10;99.90
9668;DHT22;4872;48.316;10.650;2022-12-01T06:19:57;4.00;99.90
9668;DHT22;4872;48.316;10.650;2022-12-01T06:22:24;3.90;99.90
9668;DHT22;4872;48.316;10.650;2022-12-01T06:24:51;3.90;99.90
9668;DHT22;4872;48.316;10.650;2022-12-01T06:27:17;3.80;99.90
9668;DHT22;4872;48.316;10.650;2022-12-01T06:29:44;3.80;99.90
9668;DHT22;4872;48.316;10.650;2022-12-01T06:32:11;3.70;99.90
9668;DHT22;4872;48.316;10.650;2022-12-01T06:34:39;3.80;99.90
9668;DHT22;4872;48.316;10.650;2022-12-01T06:37:06;3.70;99.90
9668;DHT22;4872;48.316;10.650;2022-12-01T06:39:33;3.60;99.90
9668;DHT22;4872;48.316;10.650;2022-12-01T06:42:00;3.60;99.90
9668;DHT22;4872;48.316;10.650;2022-12-01T06:44:26;3.60;99.90
9668;DHT22;4872;48.316;10.650;2022-12-01T06:46:55;3.60;99.90
9668;DHT22;4872;48.316;10.650;2022-12-01T06:49:22;3.60;99.90
9668;DHT22;4872;48.316;10.650;2022-12-01T06:51:50;3.60;99.90
9668;DHT22;4872;48.316;10.650;2022-12-01T06:54:17;3.60;99.90
9668;DHT22;4872;48.316;10.650;2022-12-01T06:56:44;3.50;99.90
9668;DHT22;4872;48.316;10.650;2022-12-01T06:59:11;3.50;99.90
9668;DHT22;4872;48.316;10.650;2022-12-01T07:01:38;3.60;99.90
9668;DHT22;4872;48.316;10.650;2022-12-01T07:04:04;3.60;99.90
9668;DHT22;4872;48.316;10.650;2022-12-01T07:06:31;3.60;99.90
9668;DHT22;4872;48.316;10.650;2022-12-01T07:08:59;3.60;99.90
9668;DHT22;4872;48.316;10.650;2022-12-01T07:11:26;3.60;99.90
9668;DHT22;4872;48.316;10.650;2022-12-01T07:13:56;3.60;99.90
9668;DHT22;4872;48.316;10.650;2022-12-01T07:16:24;3.60;99.90
9668;DHT22;4872;48.316;10.650;2022-12-01T07:18:50;3.60;99.90
9668;DHT22;4872;48.316;10.650;2022-12-01T07:21:17;3.70;99.90
9668;DHT22;4872;48.316;10.650;2022-12-01T07:23:44;3.70;99.90
9668;DHT22;4872;48.316;10.650;2022-12-01T07:26:14;3.70;99.90
9668;DHT22;4872;48.316;10.650;2022-12-01T07:28:42;3.70;99.90
9668;DHT22;4872;48.316;10.650;2022-12-01T07:31:10;3.70;99.90
9668;DHT22;4872;48.316;10.650;2022-12-01T07:33:38;3.70;99.90
9668;DHT22;4872;48.316;10.650;2022-12-01T07:36:07;3.70;99.90
9668;DHT22;4872;48.316;10.650;2022-12-01T07:38:34;3.70;99.90
9668;DHT22;4872;48.316;10.650;2022-12-01T07:41:03;3.70;99.90
9668;DHT22;4872;48.316;10.650;2022-12-01T07:43:31;3.70;99.90
9668;DHT22;4872;48.316;10.650;2022-12-01T07:46:03;3.70;99.90
9668;DHT22;4872;48.316;10.650;2022-12-01T07:48:31;3.70;99.90
9668;DHT22;4872;48.316;10.650;2022-12-01T07:50:57;3.70;99.90
9668;DHT22;4872;48.316;10.650;2022-12-01T07:53:24;3.70;99.90
9668;DHT22;4872;48.316;10.650;2022-12-01T07:55:51;3.70;99.90
9668;DHT22;4872;48.316;10.650;2022-12-01T07:58:18;3.70;99.90
9668;DHT22;4872;48.316;10.650;2022-12-01T08:00:46;3.70;99.90
9668;DHT22;4872;48.316;10.650;2022-12-01T08:03:13;3.70;99.90
9668;DHT22;4872;48.316;10.650;2022-12-01T08:05:40;3.70;99.90
9668;DHT22;4872;48.316;10.650;2022-12-01T08:08:07;3.70;99.90
9668;DHT22;4872;48.316;10.650;2022-12-01T08:10:34;3.70;99.90
9668;DHT22;4872;48.316;10.650;2022-12-01T08:13:01;3.60;99.90
9668;DHT22;4872;48.316;10.650;2022-12-01T08:15:28;3.70;99.90
9668;DHT22;4872;48.316;10.650;2022-12-01T08:17:59;3.70;99.90
9668;DHT22;4872;48.316;10.650;2022-12-01T08:20:26;3.60;99.90
9668;DHT22;4872;48.316;10.650;2022-12-01T08:22:53;3.60;99.90
9668;DHT22;4872;48.316;10.650;2022-12-01T08:25:20;3.60;99.90
9668;DHT22;4872;48.316;10.650;2022-12-01T08:27:47;3.60;99.90
9668;DHT22;4872;48.316;10.650;2022-12-01T08:30:13;3.80;99.90
9668;DHT22;4872;48.316;10.650;2022-12-01T08:32:40;3.70;99.90
9668;DHT22;4872;48.316;10.650;2022-12-01T08:35:09;3.70;99.90
9668;DHT22;4872;48.316;10.650;2022-12-01T08:37:36;3.70;99.90
9668;DHT22;4872;48.316;10.650;2022-12-01T08:40:03;3.70;99.90
9668;DHT22;4872;48.316;10.650;2022-12-01T08:42:30;3.70;99.90
9668;DHT22;4872;48.316;10.650;2022-12-01T08:44:57;3.70;99.90
9668;DHT22;4872;48.316;10.650;2022-12-01T08:47:26;3.70;99.90
9668;DHT22;4872;48.316;10.650;2022-12-01T08:49:53;3.70;99.90
9668;DHT22;4872;48.316;10.650;2022-12-01T08:52:21;3.70;99.90
9668;DHT22;4872;48.316;10.650;2022-12-01T08:54:48;3.80;99.90
9668;DHT22;4872;48.316;10.650;2022-12-01T08:57:15;3.80;99.90
9668;DHT22;4872;48.316;10.650;2022-12-01T08:59:41;3.80;99.90
9668;DHT22;4872;48.316;10.650;2022-12-01T09:02:12;3.80;99.90
9668;DHT22;4872;48.316;10.650;2022-12-01T09:04:39;3.80;99.90
9668;DHT22;4872;48.316;10.650;2022-12-01T09:07:09;3.80;99.90
9668;DHT22;4872;48.316;10.650;2022-12-01T09:09:37;3.80;99.90
9668;DHT22;4872;48.316;10.650;2022-12-01T09:12:04;3.80;99.90
9668;DHT22;4872;48.316;10.650;2022-12-01T09:14:35;3.90;99.90
9668;DHT22;4872;48.316;10.650;2022-12-01T09:17:03;3.80;99.90
9668;DHT22;4872;48.316;10.650;2022-12-01T09:19:30;3.90;99.90
9668;DHT22;4872;48.316;10.650;2022-12-01T09:21:57;3.90;99.90
9668;DHT22;4872;48.316;10.650;2022-12-01T09:24:24;3.90;99.90
9668;DHT22;4872;48.316;10.650;2022-12-01T09:26:55;3.90;99.90
9668;DHT22;4872;48.316;10.650;2022-12-01T09:29:23;3.90;99.90
9668;DHT22;4872;48.316;10.650;2022-12-01T09:31:53;3.90;99.90
9668;DHT22;4872;48.316;10.650;2022-12-01T09:34:20;3.90;99.90
9668;DHT22;4872;48.316;10.650;2022-12-01T09:36:47;3.90;99.90
9668;DHT22;4872;48.316;10.650;2022-12-01T09:39:16;3.90;99.90
9668;DHT22;4872;48.316;10.650;2022-12-01T09:41:46;4.00;99.90
9668;DHT22;4872;48.316;10.650;2022-12-01T09:44:20;3.90;99.90
9668;DHT22;4872;48.316;10.650;2022-12-01T09:46:54;4.00;99.90
9668;DHT22;4872;48.316;10.650;2022-12-01T09:49:25;4.00;99.90
9668;DHT22;4872;48.316;10.650;2022-12-01T09:51:54;4.00;99.90
9668;DHT22;4872;48.316;10.650;2022-12-01T09:54:21;4.00;99.90
9668;DHT22;4872;48.316;10.650;2022-12-01T09:56:50;4.00;99.90
9668;DHT22;4872;48.316;10.650;2022-12-01T09:59:21;4.00;99.90
9668;DHT22;4872;48.316;10.650;2022-12-01T10:01:52;4.00;99.90
9668;DHT22;4872;48.316;10.650;2022-12-01T10:04:23;4.00;99.90
9668;DHT22;4872;48.316;10.650;2022-12-01T10:06:57;4.10;99.90
9668;DHT22;4872;48.316;10.650;2022-12-01T10:09:30;4.10;99.90
9668;DHT22;4872;48.316;10.650;2022-12-01T10:12:05;4.10;99.90
9668;DHT22;4872;48.316;10.650;2022-12-01T10:14:35;4.10;99.90
9668;DHT22;4872;48.316;10.650;2022-12-01T10:17:14;4.20;99.90
9668;DHT22;4872;48.316;10.650;2022-12-01T10:19:51;4.20;99.90
9668;DHT22;4872;48.316;10.650;2022-12-01T10:22:37;4.20;99.90
9668;DHT22;4872;48.316;10.650;2022-12-01T10:25:20;4.20;99.90
9668;DHT22;4872;48.316;10.650;2022-12-01T10:28:05;4.20;99.90
9668;DHT22;4872;48.316;10.650;2022-12-01T10:30:47;4.20;99.90
9668;DHT22;4872;48.316;10.650;2022-12-01T10:33:21;4.20;99.90
9668;DHT22;4872;48.316;10.650;2022-12-01T10:35:48;4.20;99.90
9668;DHT22;4872;48.316;10.650;2022-12-01T10:38:21;4.20;99.90
9668;DHT22;4872;48.316;10.650;2022-12-01T10:40:49;4.20;99.90
9668;DHT22;4872;48.316;10.650;2022-12-01T10:43:17;4.20;99.90
9668;DHT22;4872;48.316;10.650;2022-12-01T10:45:47;4.20;99.90
9668;DHT22;4872;48.316;10.650;2022-12-01T10:48:16;4.20;99.90
9668;DHT22;4872;48.316;10.650;2022-12-01T10:50:45;4.20;99.90
9668;DHT22;4872;48.316;10.650;2022-12-01T10:53:36;4.20;99.90
9668;DHT22;4872;48.316;10.650;2022-12-01T10:56:04;4.20;99.90
9668;DHT22;4872;48.316;10.650;2022-12-01T10:58:33;4.20;99.90
9668;DHT22;4872;48.316;10.650;2022-12-01T11:01:15;4.20;99.90
9668;DHT22;4872;48.316;10.650;2022-12-01T11:03:48;4.20;99.90
9668;DHT22;4872;48.316;10.650;2022-12-01T11:06:20;4.30;99.90
9668;DHT22;4872;48.316;10.650;2022-12-01T11:08:51;4.20;99.90
9668;DHT22;4872;48.316;10.650;2022-12-01T11:11:25;4.20;99.90
9668;DHT22;4872;48.316;10.650;2022-12-01T11:13:53;4.20;99.90
9668;DHT22;4872;48.316;10.650;2022-12-01T11:16:39;4.20;99.90
9668;DHT22;4872;48.316;10.650;2022-12-01T11:19:15;4.20;99.90
9668;DHT22;4872;48.316;10.650;2022-12-01T11:21:46;4.30;99.90
9668;DHT22;4872;48.316;10.650;2022-12-01T11:24:39;4.30;99.90
9668;DHT22;4872;48.316;10.650;2022-12-01T11:27:14;4.30;99.90
9668;DHT22;4872;48.316;10.650;2022-12-01T11:29:42;4.30;99.90
9668;DHT22;4872;48.316;10.650;2022-12-01T11:32:19;4.30;99.90
9668;DHT22;4872;48.316;10.650;2022-12-01T11:34:49;4.30;99.90
9668;DHT22;4872;48.316;10.650;2022-12-01T11:37:19;4.30;99.90
9668;DHT22;4872;48.316;10.650;2022-12-01T11:39:46;4.20;99.90
9668;DHT22;4872;48.316;10.650;2022-12-01T11:42:22;4.30;99.90
9668;DHT22;4872;48.316;10.650;2022-12-01T11:44:50;4.30;99.90
9668;DHT22;4872;48.316;10.650;2022-12-01T11:47:21;4.30;99.90
9668;DHT22;4872;48.316;10.650;2022-12-01T11:49:52;4.40;99.90
9668;DHT22;4872;48.316;10.650;2022-12-01T11:52:25;4.40;99.90
9668;DHT22;4872;48.316;10.650;2022-12-01T11:55:18;4.30;99.90
9668;DHT22;4872;48.316;10.650;2022-12-01T11:57:48;4.30;99.90
9668;DHT22;4872;48.316;10.650;2022-12-01T12:00:17;4.30;99.90
9668;DHT22;4872;48.316;10.650;2022-12-01T12:02:56;4.30;99.90
9668;DHT22;4872;48.316;10.650;2022-12-01T12:05:45;4.20;99.90
9668;DHT22;4872;48.316;10.650;2022-12-01T12:08:21;4.20;99.90
9668;DHT22;4872;48.316;10.650;2022-12-01T12:10:54;4.10;99.90
9668;DHT22;4872;48.316;10.650;2022-12-01T12:16:38;4.00;99.90
9668;DHT22;4872;48.316;10.650;2022-12-01T12:19:26;4.00;99.90
9668;DHT22;4872;48.316;10.650;2022-12-01T12:22:06;4.00;99.90
9668;DHT22;4872;48.316;10.650;2022-12-01T12:24:47;4.00;99.90
9668;DHT22;4872;48.316;10.650;2022-12-01T12:27:25;4.10;99.90
9668;DHT22;4872;48.316;10.650;2022-12-01T12:30:08;4.20;99.90
9668;DHT22;4872;48.316;10.650;2022-12-01T12:32:53;4.20;99.90
9668;DHT22;4872;48.316;10.650;2022-12-01T12:35:29;4.20;99.90
9668;DHT22;4872;48.316;10.650;2022-12-01T12:38:16;4.20;99.90
9668;DHT22;4872;48.316;10.650;2022-12-01T12:40:52;4.40;99.90
9668;DHT22;4872;48.316;10.650;2022-12-01T12:43:24;4.20;99.90
9668;DHT22;4872;48.316;10.650;2022-12-01T12:46:00;4.30;99.90
9668;DHT22;4872;48.316;10.650;2022-12-01T12:48:41;4.30;99.90
9668;DHT22;4872;48.316;10.650;2022-12-01T12:51:17;4.30;99.90
9668;DHT22;4872;48.316;10.650;2022-12-01T12:53:47;4.30;99.90
9668;DHT22;4872;48.316;10.650;2022-12-01T12:56:18;4.30;99.90
9668;DHT22;4872;48.316;10.650;2022-12-01T12:58:54;4.30;99.90
9668;DHT22;4872;48.316;10.650;2022-12-01T13:01:23;4.30;99.90
9668;DHT22;4872;48.316;10.650;2022-12-01T13:03:55;4.30;99.90
9668;DHT22;4872;48.316;10.650;2022-12-01T13:06:29;4.30;99.90
9668;DHT22;4872;48.316;10.650;2022-12-01T13:09:01;4.30;99.90
9668;DHT22;4872;48.316;10.650;2022-12-01T13:11:32;4.20;99.90
9668;DHT22;4872;48.316;10.650;2022-12-01T13:14:04;4.20;99.90
9668;DHT22;4872;48.316;10.650;2022-12-01T13:22:26;4.10;99.90
9668;DHT22;4872;48.316;10.650;2022-12-01T13:24:55;4.20;99.90
9668;DHT22;4872;48.316;10.650;2022-12-01T13:27:23;4.10;99.90
9668;DHT22;4872;48.316;10.650;2022-12-01T13:29:52;4.10;99.90
9668;DHT22;4872;48.316;10.650;2022-12-01T13:32:32;4.10;99.90
9668;DHT22;4872;48.316;10.650;2022-12-01T13:35:01;4.10;99.90
9668;DHT22;4872;48.316;10.650;2022-12-01T13:37:36;4.10;99.90
9668;DHT22;4872;48.316;10.650;2022-12-01T13:40:09;4.10;99.90
9668;DHT22;4872;48.316;10.650;2022-12-01T13:42:37;4.10;99.90
9668;DHT22;4872;48.316;10.650;2022-12-01T13:45:09;4.10;99.90
9668;DHT22;4872;48.316;10.650;2022-12-01T13:47:49;4.10;99.90
9668;DHT22;4872;48.316;10.650;2022-12-01T13:50:50;4.30;99.90
9668;DHT22;4872;48.316;10.650;2022-12-01T13:53:28;4.20;99.90
9668;DHT22;4872;48.316;10.650;2022-12-01T13:56:03;4.20;99.90
9668;DHT22;4872;48.316;10.650;2022-12-01T13:58:43;4.20;99.90
9668;DHT22;4872;48.316;10.650;2022-12-01T14:01:45;4.20;99.90
9668;DHT22;4872;48.316;10.650;2022-12-01T14:04:29;4.20;99.90
9668;DHT22;4872;48.316;10.650;2022-12-01T14:07:33;4.20;99.90
9668;DHT22;4872;48.316;10.650;2022-12-01T14:10:23;4.20;99.90
9668;DHT22;4872;48.316;10.650;2022-12-01T14:12:52;4.20;99.90
9668;DHT22;4872;48.316;10.650;2022-12-01T14:15:35;4.20;99.90
9668;DHT22;4872;48.316;10.650;2022-12-01T14:18:17;4.20;99.90
9668;DHT22;4872;48.316;10.650;2022-12-01T14:20:47;4.20;99.90
9668;DHT22;4872;48.316;10.650;2022-12-01T14:23:19;4.20;99.90
9668;DHT22;4872;48.316;10.650;2022-12-01T14:26:04;4.20;99.90
9668;DHT22;4872;48.316;10.650;2022-12-01T14:32:24;4.10;99.90
9668;DHT22;4872;48.316;10.650;2022-12-01T14:37:42;4.00;99.90
9668;DHT22;4872;48.316;10.650;2022-12-01T14:40:18;4.00;99.90
9668;DHT22;4872;48.316;10.650;2022-12-01T14:42:51;4.20;99.90
9668;DHT22;4872;48.316;10.650;2022-12-01T14:45:52;4.00;99.90
9668;DHT22;4872;48.316;10.650;2022-12-01T14:48:27;4.10;99.90
9668;DHT22;4872;48.316;10.650;2022-12-01T14:51:10;4.10;99.90
9668;DHT22;4872;48.316;10.650;2022-12-01T14:53:40;4.00;99.90
9668;DHT22;4872;48.316;10.650;2022-12-01T14:56:12;4.00;99.90
9668;DHT22;4872;48.316;10.650;2022-12-01T14:58:50;4.00;99.90
9668;DHT22;4872;48.316;10.650;2022-12-01T15:01:17;3.80;99.90
9668;DHT22;4872;48.316;10.650;2022-12-01T15:03:46;4.00;99.90
9668;DHT22;4872;48.316;10.650;2022-12-01T15:06:16;4.00;99.90
9668;DHT22;4872;48.316;10.650;2022-12-01T15:08:43;3.90;99.90
9668;DHT22;4872;48.316;10.650;2022-12-01T15:11:19;3.90;99.90
9668;DHT22;4872;48.316;10.650;2022-12-01T15:13:49;3.90;99.90
9668;DHT22;4872;48.316;10.650;2022-12-01T15:16:18;3.90;99.90
9668;DHT22;4872;48.316;10.650;2022-12-01T15:18:45;3.90;99.90
9668;DHT22;4872;48.316;10.650;2022-12-01T15:21:15;3.90;99.90
9668;DHT22;4872;48.316;10.650;2022-12-01T15:23:58;3.90;99.90
9668;DHT22;4872;48.316;10.650;2022-12-01T15:26:28;3.90;99.90
9668;DHT22;4872;48.316;10.650;2022-12-01T15:29:14;3.90;99.90
9668;DHT22;4872;48.316;10.650;2022-12-01T15:31:41;3.90;99.90
9668;DHT22;4872;48.316;10.650;2022-12-01T15:34:13;4.00;99.90
9668;DHT22;4872;48.316;10.650;2022-12-01T15:36:40;3.90;99.90
9668;DHT22;4872;48.316;10.650;2022-12-01T15:39:11;4.00;99.90
9668;DHT22;4872;48.316;10.650;2022-12-01T15:41:39;4.00;99.90
9668;DHT22;4872;48.316;10.650;2022-12-01T15:44:18;3.90;99.90
9668;DHT22;4872;48.316;10.650;2022-12-01T15:46:45;3.90;99.90
9668;DHT22;4872;48.316;10.650;2022-12-01T15:49:17;3.90;99.90
9668;DHT22;4872;48.316;10.650;2022-12-01T15:51:44;3.80;99.90
9668;DHT22;4872;48.316;10.650;2022-12-01T15:54:18;3.80;99.90
9668;DHT22;4872;48.316;10.650;2022-12-01T15:56:50;3.80;99.90
9668;DHT22;4872;48.316;10.650;2022-12-01T15:59:26;3.80;99.90
9668;DHT22;4872;48.316;10.650;2022-12-01T16:01:53;3.80;99.90
9668;DHT22;4872;48.316;10.650;2022-12-01T16:04:24;3.90;99.90
9668;DHT22;4872;48.316;10.650;2022-12-01T16:06:56;3.80;99.90
9668;DHT22;4872;48.316;10.650;2022-12-01T16:09:27;3.90;99.90
9668;DHT22;4872;48.316;10.650;2022-12-01T16:12:20;3.90;99.90
9668;DHT22;4872;48.316;10.650;2022-12-01T16:14:51;4.00;99.90
9668;DHT22;4872;48.316;10.650;2022-12-01T16:17:17;3.90;99.90
9668;DHT22;4872;48.316;10.650;2022-12-01T16:19:44;3.90;99.90
9668;DHT22;4872;48.316;10.650;2022-12-01T16:22:15;3.80;99.90
9668;DHT22;4872;48.316;10.650;2022-12-01T16:24:45;3.80;99.90
9668;DHT22;4872;48.316;10.650;2022-12-01T16:27:18;3.80;99.90
9668;DHT22;4872;48.316;10.650;2022-12-01T16:29:50;3.80;99.90
9668;DHT22;4872;48.316;10.650;2022-12-01T16:32:19;3.70;99.90
9668;DHT22;4872;48.316;10.650;2022-12-01T16:34:47;3.70;99.90
9668;DHT22;4872;48.316;10.650;2022-12-01T16:37:14;3.70;99.90
9668;DHT22;4872;48.316;10.650;2022-12-01T16:39:41;3.80;99.90
9668;DHT22;4872;48.316;10.650;2022-12-01T16:42:11;3.70;99.90
9668;DHT22;4872;48.316;10.650;2022-12-01T16:44:39;3.70;99.90
9668;DHT22;4872;48.316;10.650;2022-12-01T16:47:12;3.70;99.90
9668;DHT22;4872;48.316;10.650;2022-12-01T16:49:39;3.70;99.90
9668;DHT22;4872;48.316;10.650;2022-12-01T16:52:06;3.70;99.90
9668;DHT22;4872;48.316;10.650;2022-12-01T16:54:33;3.70;99.90
9668;DHT22;4872;48.316;10.650;2022-12-01T16:57:00;3.70;99.90
9668;DHT22;4872;48.316;10.650;2022-12-01T16:59:26;3.70;99.90
9668;DHT22;4872;48.316;10.650;2022-12-01T17:01:53;3.70;99.90
9668;DHT22;4872;48.316;10.650;2022-12-01T17:04:21;3.60;99.90
9668;DHT22;4872;48.316;10.650;2022-12-01T17:06:48;3.60;99.90
9668;DHT22;4872;48.316;10.650;2022-12-01T17:09:15;3.60;99.90
9668;DHT22;4872;48.316;10.650;2022-12-01T17:11:42;3.60;99.90
9668;DHT22;4872;48.316;10.650;2022-12-01T17:14:08;3.60;99.90
9668;DHT22;4872;48.316;10.650;2022-12-01T17:16:36;3.60;99.90
9668;DHT22;4872;48.316;10.650;2022-12-01T17:19:03;3.60;99.90
9668;DHT22;4872;48.316;10.650;2022-12-01T17:21:31;3.60;99.90
9668;DHT22;4872;48.316;10.650;2022-12-01T17:23:57;3.60;99.90
9668;DHT22;4872;48.316;10.650;2022-12-01T17:26:24;3.60;99.90
9668;DHT22;4872;48.316;10.650;2022-12-01T17:28:52;3.60;99.90
9668;DHT22;4872;48.316;10.650;2022-12-01T17:31:19;3.60;99.90
9668;DHT22;4872;48.316;10.650;2022-12-01T17:33:46;3.50;99.90
9668;DHT22;4872;48.316;10.650;2022-12-01T17:36:14;3.40;99.90
9668;DHT22;4872;48.316;10.650;2022-12-01T17:38:44;3.40;99.90
9668;DHT22;4872;48.316;10.650;2022-12-01T17:41:13;3.40;99.90
9668;DHT22;4872;48.316;10.650;2022-12-01T17:43:40;3.40;99.90
9668;DHT22;4872;48.316;10.650;2022-12-01T17:46:10;3.40;99.90
9668;DHT22;4872;48.316;10.650;2022-12-01T17:48:38;3.30;99.90
9668;DHT22;4872;48.316;10.650;2022-12-01T17:51:05;3.40;99.90
9668;DHT22;4872;48.316;10.650;2022-12-01T17:53:33;3.40;99.90
9668;DHT22;4872;48.316;10.650;2022-12-01T17:56:05;3.40;99.90
9668;DHT22;4872;48.316;10.650;2022-12-01T17:58:32;3.40;99.90
9668;DHT22;4872;48.316;10.650;2022-12-01T18:00:59;3.40;99.90
9668;DHT22;4872;48.316;10.650;2022-12-01T18:03:26;3.30;99.90
9668;DHT22;4872;48.316;10.650;2022-12-01T18:05:56;3.30;99.90
9668;DHT22;4872;48.316;10.650;2022-12-01T18:08:24;3.30;99.90
9668;DHT22;4872;48.316;10.650;2022-12-01T18:10:51;3.30;99.90
9668;DHT22;4872;48.316;10.650;2022-12-01T18:13:19;3.30;99.90
9668;DHT22;4872;48.316;10.650;2022-12-01T18:15:46;3.30;99.90
9668;DHT22;4872;48.316;10.650;2022-12-01T18:18:13;3.30;99.90
9668;DHT22;4872;48.316;10.650;2022-12-01T18:20:40;3.30;99.90
9668;DHT22;4872;48.316;10.650;2022-12-01T18:23:07;3.30;99.90
9668;DHT22;4872;48.316;10.650;2022-12-01T18:25:34;3.40;99.90
9668;DHT22;4872;48.316;10.650;2022-12-01T18:28:01;3.30;99.90
9668;DHT22;4872;48.316;10.650;2022-12-01T18:30:31;3.40;99.90
9668;DHT22;4872;48.316;10.650;2022-12-01T18:32:58;3.30;99.90
9668;DHT22;4872;48.316;10.650;2022-12-01T18:35:25;3.30;99.90
9668;DHT22;4872;48.316;10.650;2022-12-01T18:37:52;3.30;99.90
9668;DHT22;4872;48.316;10.650;2022-12-01T18:40:19;3.30;99.90
9668;DHT22;4872;48.316;10.650;2022-12-01T18:42:46;3.30;99.90
9668;DHT22;4872;48.316;10.650;2022-12-01T18:45:15;3.30;99.90
9668;DHT22;4872;48.316;10.650;2022-12-01T18:47:44;3.30;99.90
9668;DHT22;4872;48.316;10.650;2022-12-01T18:50:11;3.30;99.90
9668;DHT22;4872;48.316;10.650;2022-12-01T18:52:37;3.30;99.90
9668;DHT22;4872;48.316;10.650;2022-12-01T18:55:05;3.30;99.90
9668;DHT22;4872;48.316;10.650;2022-12-01T18:57:32;3.30;99.90
9668;DHT22;4872;48.316;10.650;2022-12-01T18:59:58;3.30;99.90
9668;DHT22;4872;48.316;10.650;2022-12-01T19:02:25;3.30;99.90
9668;DHT22;4872;48.316;10.650;2022-12-01T19:04:53;3.30;99.90
9668;DHT22;4872;48.316;10.650;2022-12-01T19:07:20;3.30;99.90
9668;DHT22;4872;48.316;10.650;2022-12-01T19:09:47;3.40;99.90
9668;DHT22;4872;48.316;10.650;2022-12-01T19:12:14;3.30;99.90
9668;DHT22;4872;48.316;10.650;2022-12-01T19:14:40;3.30;99.90
9668;DHT22;4872;48.316;10.650;2022-12-01T19:17:07;3.30;99.90
9668;DHT22;4872;48.316;10.650;2022-12-01T19:19:34;3.30;99.90
9668;DHT22;4872;48.316;10.650;2022-12-01T19:22:02;3.30;99.90
9668;DHT22;4872;48.316;10.650;2022-12-01T19:24:29;3.30;99.90
9668;DHT22;4872;48.316;10.650;2022-12-01T19:26:56;3.30;99.90
9668;DHT22;4872;48.316;10.650;2022-12-01T19:29:23;3.40;99.90
9668;DHT22;4872;48.316;10.650;2022-12-01T19:31:50;3.30;99.90
9668;DHT22;4872;48.316;10.650;2022-12-01T19:34:17;3.40;99.90
9668;DHT22;4872;48.316;10.650;2022-12-01T19:36:43;3.30;99.90
9668;DHT22;4872;48.316;10.650;2022-12-01T19:39:12;3.30;99.90
9668;DHT22;4872;48.316;10.650;2022-12-01T19:41:38;3.30;99.90
9668;DHT22;4872;48.316;10.650;2022-12-01T19:44:05;3.30;99.90
9668;DHT22;4872;48.316;10.650;2022-12-01T19:46:32;3.40;99.90
9668;DHT22;4872;48.316;10.650;2022-12-01T19:49:00;3.50;99.90
9668;DHT22;4872;48.316;10.650;2022-12-01T19:51:29;3.50;99.90
9668;DHT22;4872;48.316;10.650;2022-12-01T19:53:57;3.50;99.90
9668;DHT22;4872;48.316;10.650;2022-12-01T19:56:27;3.50;99.90
9668;DHT22;4872;48.316;10.650;2022-12-01T19:58:54;3.50;99.90
9668;DHT22;4872;48.316;10.650;2022-12-01T20:01:21;3.60;99.90
9668;DHT22;4872;48.316;10.650;2022-12-01T20:03:49;3.60;99.90
9668;DHT22;4872;48.316;10.650;2022-12-01T20:06:18;3.60;99.90
9668;DHT22;4872;48.316;10.650;2022-12-01T20:08:45;3.60;99.90
9668;DHT22;4872;48.316;10.650;2022-12-01T20:11:13;3.60;99.90
9668;DHT22;4872;48.316;10.650;2022-12-01T20:13:42;3.60;99.90
9668;DHT22;4872;48.316;10.650;2022-12-01T20:16:11;3.60;99.90
9668;DHT22;4872;48.316;10.650;2022-12-01T20:18:39;3.60;99.90
9668;DHT22;4872;48.316;10.650;2022-12-01T20:21:08;3.60;99.90
9668;DHT22;4872;48.316;10.650;2022-12-01T20:23:36;3.60;99.90
9668;DHT22;4872;48.316;10.650;2022-12-01T20:26:04;3.70;99.90
9668;DHT22;4872;48.316;10.650;2022-12-01T20:28:32;3.60;99.90
9668;DHT22;4872;48.316;10.650;2022-12-01T20:31:02;3.60;99.90
9668;DHT22;4872;48.316;10.650;2022-12-01T20:33:29;3.60;99.90
9668;DHT22;4872;48.316;10.650;2022-12-01T20:35:56;3.60;99.90
9668;DHT22;4872;48.316;10.650;2022-12-01T20:38:23;3.60;99.90
9668;DHT22;4872;48.316;10.650;2022-12-01T20:40:50;3.60;99.90
9668;DHT22;4872;48.316;10.650;2022-12-01T20:43:18;3.60;99.90
9668;DHT22;4872;48.316;10.650;2022-12-01T20:45:44;3.70;99.90
9668;DHT22;4872;48.316;10.650;2022-12-01T20:48:13;3.70;99.90
9668;DHT22;4872;48.316;10.650;2022-12-01T20:50:40;3.70;99.90
9668;DHT22;4872;48.316;10.650;2022-12-01T20:53:07;3.60;99.90
9668;DHT22;4872;48.316;10.650;2022-12-01T20:55:34;3.60;99.90
9668;DHT22;4872;48.316;10.650;2022-12-01T20:58:02;3.60;99.90
9668;DHT22;4872;48.316;10.650;2022-12-01T21:00:29;3.60;99.90
9668;DHT22;4872;48.316;10.650;2022-12-01T21:02:56;3.60;99.90
9668;DHT22;4872;48.316;10.650;2022-12-01T21:05:25;3.60;99.90
9668;DHT22;4872;48.316;10.650;2022-12-01T21:07:53;3.70;99.90
9668;DHT22;4872;48.316;10.650;2022-12-01T21:10:20;3.70;99.90
9668;DHT22;4872;48.316;10.650;2022-12-01T21:12:49;3.70;99.90
9668;DHT22;4872;48.316;10.650;2022-12-01T21:15:42;3.70;99.90
9668;DHT22;4872;48.316;10.650;2022-12-01T21:18:18;3.70;99.90
9668;DHT22;4872;48.316;10.650;2022-12-01T21:20:51;3.80;99.90
9668;DHT22;4872;48.316;10.650;2022-12-01T21:23:18;3.80;99.90
9668;DHT22;4872;48.316;10.650;2022-12-01T21:25:47;3.70;99.90